Latest Coastal Weather Observations for Cape Sorell

IDT60701

Issued at 11:12 pm EST Tuesday 23 July 2019 (issued every 10 minutes, with the page automatically refreshed every 10 minutes)

About coastal observations | Map of coastal stations | Coastal observations for TAS | Marine services | Other Formats
Station Details ID: 097000 Name: CAPE SORELL Lat: -42.20 Lon: 145.17 Height: 19.3 m
Data from the previous 72 hours. | See also: Recent months at Cape Sorell
Date/Time
EST
Wind Sea
Height
m
Swell Vis
km
Cloud Weather Temp
°C
Press
hPa
Rain since
9am
mm
Dir  Spd
kts
Gust
kts
Height
m
Period
s
Dir
23/11:00pm WSW 20 24 - - - - - - - 8.3 1006.2 8.2
23/10:30pm WSW 18 22 - - - - - - - 8.0 1005.7 8.2
23/10:00pm WSW 17 21 - - - - - - - 7.6 1005.3 8.2
23/09:30pm WSW 25 33 - - - - - - - 6.4 1005.0 8.2
23/09:21pm W 11 30 - - - - - - - 7.1 1004.7 8.0
23/09:00pm W 7 11 - - - - - - Rain 6.8 1004.7 8.0
23/08:30pm WSW 11 15 - - - - - - - 6.7 1004.4 7.8
23/08:00pm W 9 12 - - - - - - - 7.0 1004.0 7.0
23/07:30pm W 12 19 - - - - - - - 7.0 1003.5 6.8
23/07:00pm WSW 11 16 - - - - - - - 7.3 1003.0 6.4
23/06:30pm NNW 10 15 - - - - - - - 7.0 1003.0 6.2
23/06:10pm NNW 17 25 - - - - - - - 7.2 1002.7 6.0
23/06:00pm NW 23 35 - - - - - - Rain 7.2 1002.6 5.6
23/05:53pm NW 19 29 - - - - - - - 8.9 1001.9 5.4
23/05:30pm WNW 15 20 - - - - - - - 9.2 1001.3 5.4
23/05:00pm NW 11 15 - - - - - - - 8.6 1001.1 5.4
23/04:42pm WNW 17 28 - - - - - - - 8.8 1001.0 5.4
23/04:30pm WNW 20 25 - - - - - - - 8.5 1001.0 5.4
23/04:00pm NW 13 17 - - - - - - - 8.2 1001.0 5.4
23/03:38pm NW 21 39 - - - - - - - 7.3 1001.3 5.2
23/03:36pm NW 19 39 - - - - - - - 8.0 1000.7 4.8
23/03:35pm NW 18 39 - - - - - - - 9.1 1000.4 4.4
23/03:33pm NW 16 26 - - - - - - - 10.1 1000.7 4.2
23/03:30pm NW 15 21 - - - - - - - 9.9 1000.6 4.2
23/03:19pm NW 17 27 - - - - - - - 10.0 1000.6 4.2
23/03:00pm WNW 20 27 - - - - - - - 10.5 1000.3 4.2
23/02:30pm WNW 21 27 - - - - - - - 10.6 1000.2 4.2
23/02:00pm WNW 19 27 - - - - - - - 10.5 1000.1 4.2
23/01:34pm NW 22 32 - - - - - - - 11.2 1000.1 4.2
23/01:30pm NW 25 32 - - - - - - - 11.0 1000.1 4.2
23/01:00pm NW 19 27 - - - - - - - 11.1 1000.1 4.0
23/12:30pm WNW 20 28 - - - - - - - 9.2 1000.1 4.0
23/12:00pm NW 20 31 - - - - - - - 9.3 1000.1 4.0
23/11:55am NW 19 30 - - - - - - - 10.3 1000.2 4.0
23/11:30am WNW 21 27 - - - - - - - 10.0 1000.2 4.0
23/11:06am WNW 21 33 - - - - - - - 8.7 1000.0 4.0
23/11:02am NW 18 33 - - - - - - - 9.2 999.9 4.0
23/11:00am NW 16 28 - - - - - - - 9.7 1000.0 4.0
23/10:30am NNW 15 22 - - - - - - - 8.9 1000.3 3.8
23/10:00am N 15 19 - - - - - - - 8.5 1000.3 3.2
23/09:30am NW 16 25 - - - - - - - 7.4 1000.5 2.4
23/09:00am NNW 14 20 - - - - - - Recent precip. 8.9 999.8 17.2
23/08:42am NNW 19 27 - - - - - - - 8.5 999.8 17.2
23/08:30am N 28 39 - - - - - - - 8.3 999.6 17.2
23/08:20am N 22 38 - - - - - - - 8.8 999.3 16.4
23/08:00am N 21 25 - - - - - - - 9.2 999.0 15.4
23/07:31am N 23 35 - - - - - - - 8.8 998.8 15.4
23/07:30am N 22 31 - - - - - - - 9.0 999.1 15.4
23/07:15am NNW 15 25 - - - - - - - 9.8 998.9 14.2
23/07:00am WNW 16 22 - - - - - - - 8.8 998.9 14.2
23/06:33am N 15 27 - - - - - - - 9.8 998.8 13.0
23/06:30am N 13 27 - - - - - - - 9.6 998.5 12.4
23/06:19am NNW 15 20 - - - - - - - 10.3 999.1 7.6
23/06:00am N 20 24 - - - - - - - 10.9 998.5 6.2
23/05:30am N 19 22 - - - - - - - 10.8 999.0 6.2
23/05:00am NNW 17 23 - - - - - - - 11.1 999.4 6.2
23/04:30am N 15 19 - - - - - - - 11.0 999.5 6.2
23/04:00am NW 13 19 - - - - - - - 11.1 999.5 6.2
23/03:30am NW 17 31 - - - - - - - 10.9 999.7 6.2
23/03:29am NW 17 31 - - - - - - - 11.3 999.7 6.2
23/03:00am NW 17 25 - - - - - - - 11.2 999.9 6.2
23/02:30am NW 19 25 - - - - - - - 11.3 1000.1 6.2
23/02:00am NNW 21 27 - - - - - - - 11.2 1000.1 6.2
23/01:30am NNW 20 26 - - - - - - - 10.9 1000.2 6.2
23/01:00am NNW 18 25 - - - - - - - 11.1 1000.3 6.2
23/12:30am NNW 18 23 - - - - - - - 10.6 1000.6 6.2
23/12:28am NNW 18 23 - - - - - - - 10.4 1000.6 6.2
23/12:00am N 23 29 - - - - - - - 10.4 1000.7 6.2
 
Date/Time
EST
Wind Sea
Height
m
Swell Vis
km
Cloud Weather Temp
°C
Press
hPa
Rain since
9am
mm
Dir  Spd
kts
Gust
kts
Height
m
Period
s
Dir
22/11:30pm N 24 32 - - - - - - - 10.4 1000.6 6.2
22/11:00pm N 27 35 - - - - - - - 10.1 1000.7 6.2
22/10:30pm N 27 33 - - - - - - - 10.4 1000.8 6.0
22/10:00pm N 27 35 - - - - - - - 10.3 1000.9 6.0
22/09:30pm N 27 35 - - - - - - - 10.2 1000.7 5.2
22/09:06pm NNW 21 32 - - - - - - - 9.9 1001.0 4.2
22/09:00pm NNW 22 30 - - - - - - Rain 10.0 1001.0 4.2
22/08:30pm NW 23 35 - - - - - - - 9.6 1000.8 3.2
22/08:03pm NNW 25 35 - - - - - - - 9.7 1000.3 2.4
22/08:00pm NNW 27 35 - - - - - - - 9.3 1000.1 2.2
22/07:49pm N 39 61 - - - - - - - 11.6 999.7 0.2
22/07:48pm N 41 61 - - - - - - - 13.2 998.0 0.0
22/07:30pm NNE 41 52 - - - - - - - 14.1 996.0 0.0
22/07:04pm N 41 55 - - - - - - - 14.1 995.9 0.0
22/07:00pm N 41 50 - - - - - - - 14.1 995.9 0.0
22/06:47pm N 40 51 - - - - - - - 14.1 996.3 0.0
22/06:30pm N 38 45 - - - - - - - 14.1 996.7 0.0
22/06:00pm N 37 48 - - - - - - - 13.8 997.2 0.0
22/05:43pm NNE 36 47 - - - - - - - 13.9 997.1 0.0
22/05:30pm N 33 39 - - - - - - - 13.8 997.5 0.0
22/05:00pm N 33 44 - - - - - - - 13.8 997.8 0.0
22/04:57pm N 32 44 - - - - - - - 13.7 997.7 0.0
22/04:30pm N 31 37 - - - - - - - 13.6 998.6 0.0
22/04:00pm N 33 41 - - - - - - - 13.9 998.6 0.0
22/03:30pm N 32 37 - - - - - - - 13.6 999.1 0.0
22/03:00pm N 33 41 - - - - - - - 13.7 999.4 0.0
22/02:30pm N 31 38 - - - - - - - 13.8 999.3 0.0
22/02:00pm N 29 36 - - - - - - - 13.8 999.3 0.0
22/01:30pm N 31 39 - - - - - - - 13.7 1000.0 0.0
22/01:01pm N 28 40 - - - - - - - 13.4 1000.3 0.0
22/01:00pm N 28 35 - - - - - - - 13.5 1000.6 0.0
22/12:30pm N 32 40 - - - - - - - 13.7 1000.7 0.0
22/12:00pm N 30 37 - - - - - - - 13.7 1001.6 0.0
22/11:30am N 31 37 - - - - - - - 13.6 1002.3 0.0
22/11:00am N 31 38 - - - - - - - 13.3 1003.0 0.0
22/10:30am N 30 38 - - - - - - - 13.5 1003.4 0.0
22/10:00am N 31 38 - - - - - - - 13.3 1003.2 0.0
22/09:30am N 30 38 - - - - - - - 13.0 1003.4 0.0
22/09:00am N 32 39 - - - - - - - 12.9 1003.5 1.0
22/08:30am N 31 37 - - - - - - - 12.9 1003.6 1.0
22/08:00am N 31 39 - - - - - - - 12.9 1003.9 1.0
22/07:35am N 33 43 - - - - - - - 12.9 1004.0 1.0
22/07:30am N 34 43 - - - - - - - 12.8 1003.6 1.0
22/07:00am N 33 44 - - - - - - - 12.4 1003.7 1.0
22/06:52am N 33 44 - - - - - - - 12.3 1003.5 1.0
22/06:30am N 31 38 - - - - - - - 12.3 1003.8 1.0
22/06:00am N 33 44 - - - - - - - 12.8 1003.4 1.0
22/05:30am N 31 42 - - - - - - - 12.7 1003.6 1.0
22/05:23am N 32 42 - - - - - - - 12.7 1003.9 1.0
22/05:00am N 34 42 - - - - - - - 12.4 1003.9 1.0
22/04:30am N 33 39 - - - - - - - 12.3 1004.0 1.0
22/04:00am N 32 39 - - - - - - - 11.7 1004.2 1.0
22/03:30am N 33 41 - - - - - - - 12.3 1004.6 1.0
22/03:14am N 31 41 - - - - - - - 12.7 1004.4 0.8
22/03:00am N 30 37 - - - - - - - 12.6 1004.7 0.8
22/02:30am N 30 38 - - - - - - - 12.4 1004.6 0.8
22/02:00am N 30 36 - - - - - - - 12.4 1005.0 0.8
22/01:30am N 29 36 - - - - - - - 12.2 1005.0 0.8
22/01:00am N 28 35 - - - - - - - 12.3 1005.2 0.8
22/12:30am N 26 32 - - - - - - - 12.1 1005.4 0.8
22/12:00am N 23 28 - - - - - - - 12.1 1005.9 0.8
 
Date/Time
EST
Wind Sea
Height
m
Swell Vis
km
Cloud Weather Temp
°C
Press
hPa
Rain since
9am
mm
Dir  Spd
kts
Gust
kts
Height
m
Period
s
Dir
21/11:30pm N 24 31 - - - - - - - 12.0 1005.9 0.8
21/11:06pm N 22 34 - - - - - - - 11.9 1006.1 0.8
21/11:00pm NNW 20 28 - - - - - - - 12.8 1006.1 0.8
21/10:30pm NNW 21 29 - - - - - - - 12.6 1006.4 0.8
21/10:00pm NNW 21 27 - - - - - - - 12.4 1006.6 0.8
21/09:45pm NNW 21 31 - - - - - - - 12.5 1006.6 0.8
21/09:30pm NNW 23 29 - - - - - - - 12.2 1006.6 0.8
21/09:19pm NNW 20 31 - - - - - - - 12.2 1006.5 0.8
21/09:00pm NNW 21 29 - - - - - - - 12.3 1006.4 0.8
21/08:30pm NNW 21 27 - - - - - - - 12.2 1006.5 0.8
21/08:00pm NW 20 26 - - - - - - - 12.1 1006.5 0.8
21/07:30pm NNW 20 27 - - - - - - - 11.9 1006.5 0.8
21/07:00pm NW 18 24 - - - - - - - 11.4 1006.3 0.8
21/06:30pm NW 18 25 - - - - - - - 11.2 1006.1 0.8
21/06:00pm NNW 20 26 - - - - - - Recent precip. 10.7 1005.8 0.8
21/05:30pm NW 22 34 - - - - - - - 10.3 1005.7 0.8
21/05:22pm NW 19 31 - - - - - - - 10.5 1005.4 0.6
21/05:00pm NW 16 23 - - - - - - - 10.2 1005.4 0.6
21/04:30pm NW 20 34 - - - - - - - 10.7 1005.2 0.6
21/04:26pm NW 18 34 - - - - - - - 11.3 1005.0 0.6
21/04:00pm NW 18 26 - - - - - - - 11.5 1004.9 0.6
21/03:30pm NW 16 23 - - - - - - - 11.2 1004.6 0.6
21/03:00pm WNW 23 30 - - - - - - - 11.8 1004.2 0.6
21/02:31pm NW 21 32 - - - - - - - 11.2 1003.8 0.6
21/02:30pm NW 21 31 - - - - - - - 11.2 1003.9 0.6
21/02:00pm WNW 25 31 - - - - - - - 11.8 1003.0 0.6
21/01:43pm WNW 23 33 - - - - - - - 11.3 1002.8 0.6
21/01:30pm WNW 24 30 - - - - - - - 10.8 1002.7 0.6
21/01:12pm WNW 23 33 - - - - - - - 10.6 1002.5 0.6
21/01:00pm WNW 23 31 - - - - - - - 11.2 1002.5 0.6
21/12:31pm NW 25 37 - - - - - - - 10.9 1002.6 0.6
21/12:30pm WNW 26 33 - - - - - - - 11.2 1002.5 0.6
21/12:09pm NW 23 33 - - - - - - - 13.0 1002.3 0.6
21/12:00pm NW 25 33 - - - - - - - 11.8 1002.1 0.6
21/11:30am NW 23 34 - - - - - - - 11.4 1002.2 0.6
21/11:00am NW 24 36 - - - - - - - 10.5 1001.7 0.6
21/10:49am WNW 26 41 - - - - - - - 9.8 1001.8 0.6
21/10:46am NW 23 41 - - - - - - - 10.4 1001.5 0.4
21/10:43am NW 21 31 - - - - - - - 11.1 1001.7 0.2
21/10:30am WNW 28 35 - - - - - - - 10.7 1001.5 0.2
21/10:00am NW 22 37 - - - - - - - 10.6 1001.2 0.2
21/09:30am NW 27 39 - - - - - - - 11.1 1000.4 0.0
21/09:15am NW 26 36 - - - - - - - 11.0 999.9 0.0
21/09:00am NW 28 38 - - - - - - Recent precip. 11.3 999.3 2.8
21/08:30am NNW 30 40 - - - - - - - 11.8 998.3 2.6
21/08:11am N 33 48 - - - - - - - 11.7 997.1 2.6
21/08:00am N 34 42 - - - - - - - 11.8 997.3 2.6
21/07:30am N 36 48 - - - - - - - 11.5 996.8 1.8
21/07:12am NNE 32 43 - - - - - - - 11.4 997.0 1.2
21/07:00am NNE 30 37 - - - - - - - 11.8 996.8 0.8
21/06:30am NNE 31 38 - - - - - - - 12.5 997.2 0.4
21/06:00am NNE 29 35 - - - - - - - 13.0 997.7 0.0
21/05:30am NNE 31 38 - - - - - - - 13.5 997.9 0.0
21/05:00am NNE 29 40 - - - - - - - 13.6 998.4 0.0
21/04:53am NNE 28 40 - - - - - - - 13.7 998.4 0.0
21/04:30am NNE 27 33 - - - - - - - 13.3 998.7 0.0
21/04:00am NNE 29 40 - - - - - - - 13.5 999.3 0.0
21/03:56am NNE 29 40 - - - - - - - 13.5 999.3 0.0
21/03:30am NNE 30 36 - - - - - - - 13.4 1000.0 0.0
21/03:00am N 29 33 - - - - - - - 13.3 1001.1 0.0
21/02:30am N 31 38 - - - - - - - 13.4 1001.3 0.0
21/02:00am NNE 30 36 - - - - - - - 13.3 1001.7 0.0
21/01:30am N 31 39 - - - - - - - 13.3 1002.5 0.0
21/01:15am NNE 30 42 - - - - - - - 13.4 1002.7 0.0
21/01:00am NNE 31 36 - - - - - - - 13.4 1002.9 0.0
21/12:30am NNE 30 38 - - - - - - - 13.3 1003.8 0.0
21/12:00am NNE 29 34 - - - - - - - 13.2 1004.6 0.0
 
Date/Time
EST
Wind Sea
Height
m
Swell Vis
km
Cloud Weather Temp
°C
Press
hPa
Rain since
9am
mm
Dir  Spd
kts
Gust
kts
Height
m
Period
s
Dir
20/11:30pm NNE 28 34 - - - - - - - 13.1 1005.3 0.0

Other formats

Comma delimited format used in spreadsheet applications
http://www.bom.gov.au/fwo/IDT60701/IDT60701.94974.axf

JavaScript Object Notation format (JSON) in row-major order
http://www.bom.gov.au/fwo/IDT60701/IDT60701.94974.json

Data quality

Most of these data are generated automatically and are frequently updated. Quality checks on data are not normally performed. It is possible for incorrect values to appear. Refer to information at About Latest Weather Observations and please check the disclaimer before using these data.